sensor_id;sensor_type;location;lat;lon;timestamp;temperature;humidity
285;DHT22;127;48.770;9.212;2022-11-28T00:01:38;4.70;99.90
285;DHT22;127;48.770;9.212;2022-11-28T00:04:08;4.80;99.90
285;DHT22;127;48.770;9.212;2022-11-28T00:06:41;4.90;99.90
285;DHT22;127;48.770;9.212;2022-11-28T00:09:11;4.70;99.90
285;DHT22;127;48.770;9.212;2022-11-28T00:11:41;4.60;99.90
285;DHT22;127;48.770;9.212;2022-11-28T00:14:10;4.70;99.90
285;DHT22;127;48.770;9.212;2022-11-28T00:16:39;4.60;99.90
285;DHT22;127;48.770;9.212;2022-11-28T00:19:09;4.70;99.90
285;DHT22;127;48.770;9.212;2022-11-28T00:21:40;4.80;99.90
285;DHT22;127;48.770;9.212;2022-11-28T00:24:09;4.80;99.90
285;DHT22;127;48.770;9.212;2022-11-28T00:26:39;4.90;99.90
285;DHT22;127;48.770;9.212;2022-11-28T00:29:09;4.70;99.90
285;DHT22;127;48.770;9.212;2022-11-28T00:31:40;4.70;99.90
285;DHT22;127;48.770;9.212;2022-11-28T00:34:10;4.70;99.90
285;DHT22;127;48.770;9.212;2022-11-28T00:36:42;4.80;99.90
285;DHT22;127;48.770;9.212;2022-11-28T00:39:12;4.90;99.90
285;DHT22;127;48.770;9.212;2022-11-28T00:41:42;4.90;99.90
285;DHT22;127;48.770;9.212;2022-11-28T00:44:11;5.00;99.90
285;DHT22;127;48.770;9.212;2022-11-28T00:46:39;4.90;99.90
285;DHT22;127;48.770;9.212;2022-11-28T00:49:08;5.00;99.90
285;DHT22;127;48.770;9.212;2022-11-28T00:51:37;5.00;99.90
285;DHT22;127;48.770;9.212;2022-11-28T00:54:08;5.10;99.90
285;DHT22;127;48.770;9.212;2022-11-28T00:56:38;5.20;99.90
285;DHT22;127;48.770;9.212;2022-11-28T00:59:07;5.20;99.90
285;DHT22;127;48.770;9.212;2022-11-28T01:01:38;5.20;99.90
285;DHT22;127;48.770;9.212;2022-11-28T01:04:08;5.30;99.90
285;DHT22;127;48.770;9.212;2022-11-28T01:06:39;5.30;99.90
285;DHT22;127;48.770;9.212;2022-11-28T01:09:13;5.20;99.90
285;DHT22;127;48.770;9.212;2022-11-28T01:11:43;5.10;99.90
285;DHT22;127;48.770;9.212;2022-11-28T01:14:15;5.20;99.90
285;DHT22;127;48.770;9.212;2022-11-28T01:16:43;5.10;99.90
285;DHT22;127;48.770;9.212;2022-11-28T01:19:12;5.00;99.90
285;DHT22;127;48.770;9.212;2022-11-28T01:21:41;5.10;99.90
285;DHT22;127;48.770;9.212;2022-11-28T01:24:12;5.10;99.90
285;DHT22;127;48.770;9.212;2022-11-28T01:26:42;5.10;99.90
285;DHT22;127;48.770;9.212;2022-11-28T01:29:10;5.00;99.90
285;DHT22;127;48.770;9.212;2022-11-28T01:31:39;4.90;99.90
285;DHT22;127;48.770;9.212;2022-11-28T01:34:08;4.80;99.90
285;DHT22;127;48.770;9.212;2022-11-28T01:36:37;4.70;99.90
285;DHT22;127;48.770;9.212;2022-11-28T01:39:06;4.60;99.90
285;DHT22;127;48.770;9.212;2022-11-28T01:41:38;4.50;99.90
285;DHT22;127;48.770;9.212;2022-11-28T01:47:14;4.20;99.90
285;DHT22;127;48.770;9.212;2022-11-28T01:49:44;4.10;99.90
285;DHT22;127;48.770;9.212;2022-11-28T01:52:16;4.10;99.90
285;DHT22;127;48.770;9.212;2022-11-28T01:54:49;4.10;99.90
285;DHT22;127;48.770;9.212;2022-11-28T01:57:21;4.30;99.90
285;DHT22;127;48.770;9.212;2022-11-28T01:59:56;4.30;99.90
285;DHT22;127;48.770;9.212;2022-11-28T02:02:33;4.30;99.90
285;DHT22;127;48.770;9.212;2022-11-28T02:05:05;4.30;99.90
285;DHT22;127;48.770;9.212;2022-11-28T02:07:34;4.40;99.90
285;DHT22;127;48.770;9.212;2022-11-28T02:10:05;4.40;99.90
285;DHT22;127;48.770;9.212;2022-11-28T02:12:49;4.30;99.90
285;DHT22;127;48.770;9.212;2022-11-28T02:15:29;4.20;99.90
285;DHT22;127;48.770;9.212;2022-11-28T02:18:14;4.20;99.90
285;DHT22;127;48.770;9.212;2022-11-28T02:21:04;4.20;99.90
285;DHT22;127;48.770;9.212;2022-11-28T02:30:11;4.30;99.90
285;DHT22;127;48.770;9.212;2022-11-28T02:33:09;4.50;99.90
285;DHT22;127;48.770;9.212;2022-11-28T02:35:49;4.50;99.90
285;DHT22;127;48.770;9.212;2022-11-28T02:38:26;4.50;99.90
285;DHT22;127;48.770;9.212;2022-11-28T02:41:01;4.60;99.90
285;DHT22;127;48.770;9.212;2022-11-28T02:43:37;4.60;99.90
285;DHT22;127;48.770;9.212;2022-11-28T02:46:12;4.60;99.90
285;DHT22;127;48.770;9.212;2022-11-28T02:48:49;4.50;99.90
285;DHT22;127;48.770;9.212;2022-11-28T02:51:23;4.60;99.90
285;DHT22;127;48.770;9.212;2022-11-28T02:53:54;4.60;99.90
285;DHT22;127;48.770;9.212;2022-11-28T02:56:24;4.60;99.90
285;DHT22;127;48.770;9.212;2022-11-28T02:58:53;4.60;99.90
285;DHT22;127;48.770;9.212;2022-11-28T03:01:24;4.60;99.90
285;DHT22;127;48.770;9.212;2022-11-28T03:04:05;4.60;99.90
285;DHT22;127;48.770;9.212;2022-11-28T03:06:42;4.70;99.90
285;DHT22;127;48.770;9.212;2022-11-28T03:09:28;4.70;99.90
285;DHT22;127;48.770;9.212;2022-11-28T03:12:10;4.70;99.90
285;DHT22;127;48.770;9.212;2022-11-28T03:14:48;4.70;99.90
285;DHT22;127;48.770;9.212;2022-11-28T03:17:23;4.80;99.90
285;DHT22;127;48.770;9.212;2022-11-28T03:20:05;4.70;99.90
285;DHT22;127;48.770;9.212;2022-11-28T03:22:39;4.70;99.90
285;DHT22;127;48.770;9.212;2022-11-28T03:25:16;4.60;99.90
285;DHT22;127;48.770;9.212;2022-11-28T03:27:52;4.50;99.90
285;DHT22;127;48.770;9.212;2022-11-28T03:30:27;4.50;99.90
285;DHT22;127;48.770;9.212;2022-11-28T03:32:57;4.50;99.90
285;DHT22;127;48.770;9.212;2022-11-28T03:35:33;4.50;99.90
285;DHT22;127;48.770;9.212;2022-11-28T03:38:08;4.30;99.90
285;DHT22;127;48.770;9.212;2022-11-28T03:40:40;4.30;99.90
285;DHT22;127;48.770;9.212;2022-11-28T03:43:12;4.30;99.90
285;DHT22;127;48.770;9.212;2022-11-28T03:45:45;4.40;99.90
285;DHT22;127;48.770;9.212;2022-11-28T03:48:20;4.40;99.90
285;DHT22;127;48.770;9.212;2022-11-28T03:50:58;4.50;99.90
285;DHT22;127;48.770;9.212;2022-11-28T03:53:35;4.40;99.90
285;DHT22;127;48.770;9.212;2022-11-28T03:56:11;4.30;99.90
285;DHT22;127;48.770;9.212;2022-11-28T03:58:47;4.40;99.90
285;DHT22;127;48.770;9.212;2022-11-28T04:01:28;4.40;99.90
285;DHT22;127;48.770;9.212;2022-11-28T04:04:07;4.50;99.90
285;DHT22;127;48.770;9.212;2022-11-28T04:06:48;4.50;99.90
285;DHT22;127;48.770;9.212;2022-11-28T04:09:28;4.60;99.90
285;DHT22;127;48.770;9.212;2022-11-28T04:12:05;4.60;99.90
285;DHT22;127;48.770;9.212;2022-11-28T04:14:38;4.60;99.90
285;DHT22;127;48.770;9.212;2022-11-28T04:17:12;4.70;99.90
285;DHT22;127;48.770;9.212;2022-11-28T04:19:45;4.50;99.90
285;DHT22;127;48.770;9.212;2022-11-28T04:22:21;4.50;99.90
285;DHT22;127;48.770;9.212;2022-11-28T04:24:54;4.50;99.90
285;DHT22;127;48.770;9.212;2022-11-28T04:27:27;4.50;99.90
285;DHT22;127;48.770;9.212;2022-11-28T04:29:59;4.60;99.90
285;DHT22;127;48.770;9.212;2022-11-28T04:32:30;4.60;99.90
285;DHT22;127;48.770;9.212;2022-11-28T04:35:04;4.60;99.90
285;DHT22;127;48.770;9.212;2022-11-28T04:37:37;4.60;99.90
285;DHT22;127;48.770;9.212;2022-11-28T04:40:09;4.60;99.90
285;DHT22;127;48.770;9.212;2022-11-28T04:42:41;4.50;99.90
285;DHT22;127;48.770;9.212;2022-11-28T04:45:15;4.60;99.90
285;DHT22;127;48.770;9.212;2022-11-28T04:47:45;4.60;99.90
285;DHT22;127;48.770;9.212;2022-11-28T04:50:14;4.50;99.90
285;DHT22;127;48.770;9.212;2022-11-28T04:52:50;4.40;99.90
285;DHT22;127;48.770;9.212;2022-11-28T04:55:27;4.40;99.90
285;DHT22;127;48.770;9.212;2022-11-28T04:58:02;4.50;99.90
285;DHT22;127;48.770;9.212;2022-11-28T05:00:33;4.60;99.90
285;DHT22;127;48.770;9.212;2022-11-28T05:03:03;4.60;99.90
285;DHT22;127;48.770;9.212;2022-11-28T05:05:42;4.60;99.90
285;DHT22;127;48.770;9.212;2022-11-28T05:08:14;4.50;99.90
285;DHT22;127;48.770;9.212;2022-11-28T05:10:43;4.40;99.90
285;DHT22;127;48.770;9.212;2022-11-28T05:13:11;4.20;99.90
285;DHT22;127;48.770;9.212;2022-11-28T05:15:40;4.60;99.90
285;DHT22;127;48.770;9.212;2022-11-28T05:18:09;4.60;99.90
285;DHT22;127;48.770;9.212;2022-11-28T05:20:37;4.60;99.90
285;DHT22;127;48.770;9.212;2022-11-28T05:23:06;4.60;99.90
285;DHT22;127;48.770;9.212;2022-11-28T05:25:39;4.60;99.90
285;DHT22;127;48.770;9.212;2022-11-28T05:28:08;4.70;99.90
285;DHT22;127;48.770;9.212;2022-11-28T05:30:36;4.70;99.90
285;DHT22;127;48.770;9.212;2022-11-28T05:33:05;4.80;99.90
285;DHT22;127;48.770;9.212;2022-11-28T05:35:33;4.90;99.90
285;DHT22;127;48.770;9.212;2022-11-28T05:38:02;5.00;99.90
285;DHT22;127;48.770;9.212;2022-11-28T05:40:31;5.00;99.90
285;DHT22;127;48.770;9.212;2022-11-28T05:43:02;5.00;99.90
285;DHT22;127;48.770;9.212;2022-11-28T05:45:31;5.20;99.90
285;DHT22;127;48.770;9.212;2022-11-28T05:48:00;5.20;99.90
285;DHT22;127;48.770;9.212;2022-11-28T05:50:28;5.20;99.90
285;DHT22;127;48.770;9.212;2022-11-28T05:52:57;5.30;99.90
285;DHT22;127;48.770;9.212;2022-11-28T05:55:25;5.30;99.90
285;DHT22;127;48.770;9.212;2022-11-28T05:57:54;5.30;99.90
285;DHT22;127;48.770;9.212;2022-11-28T06:00:26;5.30;99.90
285;DHT22;127;48.770;9.212;2022-11-28T06:02:55;5.40;99.90
285;DHT22;127;48.770;9.212;2022-11-28T06:05:24;5.40;99.90
285;DHT22;127;48.770;9.212;2022-11-28T06:07:52;5.40;99.90
285;DHT22;127;48.770;9.212;2022-11-28T06:10:21;5.50;99.90
285;DHT22;127;48.770;9.212;2022-11-28T06:12:50;5.40;99.90
285;DHT22;127;48.770;9.212;2022-11-28T06:15:18;5.20;99.90
285;DHT22;127;48.770;9.212;2022-11-28T06:17:50;5.30;99.90
285;DHT22;127;48.770;9.212;2022-11-28T06:20:18;5.20;99.90
285;DHT22;127;48.770;9.212;2022-11-28T06:22:47;5.10;99.90
285;DHT22;127;48.770;9.212;2022-11-28T06:25:16;5.00;99.90
285;DHT22;127;48.770;9.212;2022-11-28T06:27:44;5.10;99.90
285;DHT22;127;48.770;9.212;2022-11-28T06:30:13;5.10;99.90
285;DHT22;127;48.770;9.212;2022-11-28T06:32:42;5.20;99.90
285;DHT22;127;48.770;9.212;2022-11-28T06:35:13;5.40;99.90
285;DHT22;127;48.770;9.212;2022-11-28T06:37:42;5.60;99.90
285;DHT22;127;48.770;9.212;2022-11-28T06:40:11;5.40;99.90
285;DHT22;127;48.770;9.212;2022-11-28T06:42:40;5.30;99.90
285;DHT22;127;48.770;9.212;2022-11-28T06:45:09;5.20;99.90
285;DHT22;127;48.770;9.212;2022-11-28T06:47:38;5.20;99.90
285;DHT22;127;48.770;9.212;2022-11-28T06:50:08;5.20;99.90
285;DHT22;127;48.770;9.212;2022-11-28T06:52:39;5.00;99.90
285;DHT22;127;48.770;9.212;2022-11-28T06:55:08;5.00;99.90
285;DHT22;127;48.770;9.212;2022-11-28T06:57:37;4.90;99.90
285;DHT22;127;48.770;9.212;2022-11-28T07:00:07;4.80;99.90
285;DHT22;127;48.770;9.212;2022-11-28T07:02:36;4.70;99.90
285;DHT22;127;48.770;9.212;2022-11-28T07:05:06;4.80;99.90
285;DHT22;127;48.770;9.212;2022-11-28T07:07:34;4.90;99.90
285;DHT22;127;48.770;9.212;2022-11-28T07:10:07;4.80;99.90
285;DHT22;127;48.770;9.212;2022-11-28T07:12:35;4.80;99.90
285;DHT22;127;48.770;9.212;2022-11-28T07:15:06;4.80;99.90
285;DHT22;127;48.770;9.212;2022-11-28T07:17:36;4.90;99.90
285;DHT22;127;48.770;9.212;2022-11-28T07:20:06;5.00;99.90
285;DHT22;127;48.770;9.212;2022-11-28T07:22:35;5.10;99.90
285;DHT22;127;48.770;9.212;2022-11-28T07:25:07;5.30;99.90
285;DHT22;127;48.770;9.212;2022-11-28T07:27:35;5.20;99.90
285;DHT22;127;48.770;9.212;2022-11-28T07:30:06;5.40;99.90
285;DHT22;127;48.770;9.212;2022-11-28T07:32:34;5.50;99.90
285;DHT22;127;48.770;9.212;2022-11-28T07:35:06;5.50;99.90
285;DHT22;127;48.770;9.212;2022-11-28T07:37:36;5.60;99.90
285;DHT22;127;48.770;9.212;2022-11-28T07:40:08;5.70;99.90
285;DHT22;127;48.770;9.212;2022-11-28T07:42:38;5.90;99.90
285;DHT22;127;48.770;9.212;2022-11-28T07:45:08;6.10;99.90
285;DHT22;127;48.770;9.212;2022-11-28T07:47:36;6.20;99.90
285;DHT22;127;48.770;9.212;2022-11-28T07:50:06;6.30;99.90
285;DHT22;127;48.770;9.212;2022-11-28T07:52:35;6.50;99.90
285;DHT22;127;48.770;9.212;2022-11-28T07:55:07;6.60;99.90
285;DHT22;127;48.770;9.212;2022-11-28T07:57:36;6.80;99.90
285;DHT22;127;48.770;9.212;2022-11-28T08:00:06;7.00;99.90
285;DHT22;127;48.770;9.212;2022-11-28T08:02:37;6.90;99.90
285;DHT22;127;48.770;9.212;2022-11-28T08:05:06;6.90;99.90
285;DHT22;127;48.770;9.212;2022-11-28T08:07:35;7.00;99.90
285;DHT22;127;48.770;9.212;2022-11-28T08:10:08;7.00;99.90
285;DHT22;127;48.770;9.212;2022-11-28T08:12:36;7.10;99.90
285;DHT22;127;48.770;9.212;2022-11-28T08:15:06;7.10;99.90
285;DHT22;127;48.770;9.212;2022-11-28T08:17:34;7.30;99.90
285;DHT22;127;48.770;9.212;2022-11-28T08:20:04;7.40;99.90
285;DHT22;127;48.770;9.212;2022-11-28T08:22:33;7.60;99.90
285;DHT22;127;48.770;9.212;2022-11-28T08:25:02;7.70;99.90
285;DHT22;127;48.770;9.212;2022-11-28T08:27:33;7.70;99.90
285;DHT22;127;48.770;9.212;2022-11-28T08:30:02;7.70;99.90
285;DHT22;127;48.770;9.212;2022-11-28T08:32:31;7.70;99.90
285;DHT22;127;48.770;9.212;2022-11-28T08:35:00;7.70;99.90
285;DHT22;127;48.770;9.212;2022-11-28T08:37:28;7.70;99.90
285;DHT22;127;48.770;9.212;2022-11-28T08:39:57;7.80;99.90
285;DHT22;127;48.770;9.212;2022-11-28T08:42:27;7.80;99.90
285;DHT22;127;48.770;9.212;2022-11-28T08:44:58;8.00;99.90
285;DHT22;127;48.770;9.212;2022-11-28T08:47:27;8.10;99.90
285;DHT22;127;48.770;9.212;2022-11-28T08:49:55;8.30;99.90
285;DHT22;127;48.770;9.212;2022-11-28T08:52:24;8.30;99.90
285;DHT22;127;48.770;9.212;2022-11-28T08:54:53;8.40;99.90
285;DHT22;127;48.770;9.212;2022-11-28T08:57:21;8.60;99.90
285;DHT22;127;48.770;9.212;2022-11-28T08:59:50;8.60;99.90
285;DHT22;127;48.770;9.212;2022-11-28T09:02:21;8.70;99.90
285;DHT22;127;48.770;9.212;2022-11-28T09:04:50;8.70;99.90
285;DHT22;127;48.770;9.212;2022-11-28T09:07:18;8.70;99.90
285;DHT22;127;48.770;9.212;2022-11-28T09:09:47;8.80;99.90
285;DHT22;127;48.770;9.212;2022-11-28T09:12:16;8.80;99.90
285;DHT22;127;48.770;9.212;2022-11-28T09:14:44;8.70;99.90
285;DHT22;127;48.770;9.212;2022-11-28T09:17:13;8.70;99.90
285;DHT22;127;48.770;9.212;2022-11-28T09:19:45;9.00;99.90
285;DHT22;127;48.770;9.212;2022-11-28T09:22:14;9.00;99.90
285;DHT22;127;48.770;9.212;2022-11-28T09:24:42;8.60;99.90
285;DHT22;127;48.770;9.212;2022-11-28T09:27:11;8.60;99.90
285;DHT22;127;48.770;9.212;2022-11-28T09:29:39;8.30;99.90
285;DHT22;127;48.770;9.212;2022-11-28T09:32:09;7.90;99.90
285;DHT22;127;48.770;9.212;2022-11-28T09:34:37;7.60;99.90
285;DHT22;127;48.770;9.212;2022-11-28T09:37:09;7.60;99.90
285;DHT22;127;48.770;9.212;2022-11-28T09:39:37;7.50;99.90
285;DHT22;127;48.770;9.212;2022-11-28T09:42:12;7.60;99.90
285;DHT22;127;48.770;9.212;2022-11-28T09:44:44;7.70;99.90
285;DHT22;127;48.770;9.212;2022-11-28T09:47:20;7.70;99.90
285;DHT22;127;48.770;9.212;2022-11-28T09:49:53;7.50;99.90
285;DHT22;127;48.770;9.212;2022-11-28T09:52:33;7.40;99.90
285;DHT22;127;48.770;9.212;2022-11-28T09:55:13;7.50;99.90
285;DHT22;127;48.770;9.212;2022-11-28T09:57:45;7.40;99.90
285;DHT22;127;48.770;9.212;2022-11-28T10:00:16;7.50;99.90
285;DHT22;127;48.770;9.212;2022-11-28T10:05:42;7.80;99.90
285;DHT22;127;48.770;9.212;2022-11-28T10:08:22;7.50;99.90
285;DHT22;127;48.770;9.212;2022-11-28T10:10:59;7.20;99.90
285;DHT22;127;48.770;9.212;2022-11-28T10:13:40;7.30;99.90
285;DHT22;127;48.770;9.212;2022-11-28T10:16:15;7.20;99.90
285;DHT22;127;48.770;9.212;2022-11-28T10:18:50;7.10;99.90
285;DHT22;127;48.770;9.212;2022-11-28T10:21:25;7.20;99.90
285;DHT22;127;48.770;9.212;2022-11-28T10:24:01;7.10;99.90
285;DHT22;127;48.770;9.212;2022-11-28T10:26:35;7.20;99.90
285;DHT22;127;48.770;9.212;2022-11-28T10:29:10;7.40;99.90
285;DHT22;127;48.770;9.212;2022-11-28T10:31:43;7.50;99.90
285;DHT22;127;48.770;9.212;2022-11-28T10:34:17;7.50;99.90
285;DHT22;127;48.770;9.212;2022-11-28T10:36:51;7.50;99.90
285;DHT22;127;48.770;9.212;2022-11-28T10:39:26;7.60;99.90
285;DHT22;127;48.770;9.212;2022-11-28T10:42:00;7.60;99.90
285;DHT22;127;48.770;9.212;2022-11-28T10:45:07;7.70;99.90
285;DHT22;127;48.770;9.212;2022-11-28T10:48:05;7.90;99.90
285;DHT22;127;48.770;9.212;2022-11-28T10:50:41;7.90;99.90
285;DHT22;127;48.770;9.212;2022-11-28T10:53:24;7.80;99.90
285;DHT22;127;48.770;9.212;2022-11-28T10:56:06;7.90;99.90
285;DHT22;127;48.770;9.212;2022-11-28T10:58:41;8.00;99.90
285;DHT22;127;48.770;9.212;2022-11-28T11:01:13;7.90;99.90
285;DHT22;127;48.770;9.212;2022-11-28T11:03:42;7.90;99.90
285;DHT22;127;48.770;9.212;2022-11-28T11:06:11;8.10;99.90
285;DHT22;127;48.770;9.212;2022-11-28T11:08:40;8.30;99.90
285;DHT22;127;48.770;9.212;2022-11-28T11:11:21;8.30;99.90
285;DHT22;127;48.770;9.212;2022-11-28T11:13:58;8.50;99.90
285;DHT22;127;48.770;9.212;2022-11-28T11:16:48;8.70;99.90
285;DHT22;127;48.770;9.212;2022-11-28T11:19:24;8.70;99.90
285;DHT22;127;48.770;9.212;2022-11-28T11:21:59;8.70;99.90
285;DHT22;127;48.770;9.212;2022-11-28T11:24:29;8.40;99.90
285;DHT22;127;48.770;9.212;2022-11-28T11:27:16;8.40;99.90
285;DHT22;127;48.770;9.212;2022-11-28T11:29:45;8.40;99.90
285;DHT22;127;48.770;9.212;2022-11-28T11:32:18;8.50;99.90
285;DHT22;127;48.770;9.212;2022-11-28T11:34:48;8.30;99.90
285;DHT22;127;48.770;9.212;2022-11-28T11:37:20;8.20;99.90
285;DHT22;127;48.770;9.212;2022-11-28T11:39:50;8.40;99.90
285;DHT22;127;48.770;9.212;2022-11-28T11:42:24;8.60;99.90
285;DHT22;127;48.770;9.212;2022-11-28T11:44:53;8.50;99.90
285;DHT22;127;48.770;9.212;2022-11-28T11:47:41;8.20;99.90
285;DHT22;127;48.770;9.212;2022-11-28T11:50:16;8.10;99.90
285;DHT22;127;48.770;9.212;2022-11-28T11:53:00;7.80;99.90
285;DHT22;127;48.770;9.212;2022-11-28T11:55:30;7.80;99.90
285;DHT22;127;48.770;9.212;2022-11-28T11:58:02;7.50;99.90
285;DHT22;127;48.770;9.212;2022-11-28T12:00:36;7.70;99.90
285;DHT22;127;48.770;9.212;2022-11-28T12:03:13;7.50;99.90
285;DHT22;127;48.770;9.212;2022-11-28T12:05:48;7.50;99.90
285;DHT22;127;48.770;9.212;2022-11-28T12:08:24;7.40;99.90
285;DHT22;127;48.770;9.212;2022-11-28T12:11:06;7.50;99.90
285;DHT22;127;48.770;9.212;2022-11-28T12:13:38;7.60;99.90
285;DHT22;127;48.770;9.212;2022-11-28T12:16:19;7.60;99.90
285;DHT22;127;48.770;9.212;2022-11-28T12:18:57;7.60;99.90
285;DHT22;127;48.770;9.212;2022-11-28T12:21:37;7.60;99.90
285;DHT22;127;48.770;9.212;2022-11-28T12:24:10;7.70;99.90
285;DHT22;127;48.770;9.212;2022-11-28T12:26:44;7.80;99.90
285;DHT22;127;48.770;9.212;2022-11-28T12:29:27;7.90;99.90
285;DHT22;127;48.770;9.212;2022-11-28T12:32:12;7.90;99.90
285;DHT22;127;48.770;9.212;2022-11-28T12:34:51;8.00;99.90
285;DHT22;127;48.770;9.212;2022-11-28T12:37:32;8.10;99.90
285;DHT22;127;48.770;9.212;2022-11-28T12:40:12;8.20;99.90
285;DHT22;127;48.770;9.212;2022-11-28T12:42:56;8.30;99.90
285;DHT22;127;48.770;9.212;2022-11-28T12:45:39;8.40;99.90
285;DHT22;127;48.770;9.212;2022-11-28T12:48:29;8.50;99.90
285;DHT22;127;48.770;9.212;2022-11-28T12:51:05;8.50;99.90
285;DHT22;127;48.770;9.212;2022-11-28T12:53:51;8.50;99.90
285;DHT22;127;48.770;9.212;2022-11-28T12:56:30;8.50;99.90
285;DHT22;127;48.770;9.212;2022-11-28T12:59:05;8.50;99.90
285;DHT22;127;48.770;9.212;2022-11-28T13:01:50;8.50;99.90
285;DHT22;127;48.770;9.212;2022-11-28T13:04:38;8.70;99.90
285;DHT22;127;48.770;9.212;2022-11-28T13:07:14;8.70;99.90
285;DHT22;127;48.770;9.212;2022-11-28T13:09:57;8.70;99.90
285;DHT22;127;48.770;9.212;2022-11-28T13:12:38;8.80;99.90
285;DHT22;127;48.770;9.212;2022-11-28T13:15:15;8.80;99.90
285;DHT22;127;48.770;9.212;2022-11-28T13:17:52;8.90;99.90
285;DHT22;127;48.770;9.212;2022-11-28T13:20:27;9.00;99.90
285;DHT22;127;48.770;9.212;2022-11-28T13:23:04;9.10;99.90
285;DHT22;127;48.770;9.212;2022-11-28T13:25:40;9.10;99.90
285;DHT22;127;48.770;9.212;2022-11-28T13:28:14;9.20;99.90
285;DHT22;127;48.770;9.212;2022-11-28T13:30:47;9.30;99.90
285;DHT22;127;48.770;9.212;2022-11-28T13:33:38;9.30;99.90
285;DHT22;127;48.770;9.212;2022-11-28T13:36:16;9.30;99.90
285;DHT22;127;48.770;9.212;2022-11-28T13:38:52;9.40;99.90
285;DHT22;127;48.770;9.212;2022-11-28T13:41:33;9.50;99.90
285;DHT22;127;48.770;9.212;2022-11-28T13:44:10;9.50;99.90
285;DHT22;127;48.770;9.212;2022-11-28T13:46:40;9.70;99.90
285;DHT22;127;48.770;9.212;2022-11-28T13:49:20;9.50;99.90
285;DHT22;127;48.770;9.212;2022-11-28T13:54:58;9.40;99.90
285;DHT22;127;48.770;9.212;2022-11-28T13:57:29;9.30;99.90
285;DHT22;127;48.770;9.212;2022-11-28T14:00:02;9.40;99.90
285;DHT22;127;48.770;9.212;2022-11-28T14:02:40;9.20;99.90
285;DHT22;127;48.770;9.212;2022-11-28T14:05:28;9.20;99.90
285;DHT22;127;48.770;9.212;2022-11-28T14:07:58;9.30;99.90
285;DHT22;127;48.770;9.212;2022-11-28T14:10:39;9.40;99.90
285;DHT22;127;48.770;9.212;2022-11-28T14:13:27;9.30;99.90
285;DHT22;127;48.770;9.212;2022-11-28T14:16:06;9.30;99.90
285;DHT22;127;48.770;9.212;2022-11-28T14:19:00;9.30;99.90
285;DHT22;127;48.770;9.212;2022-11-28T14:21:44;9.10;99.90
285;DHT22;127;48.770;9.212;2022-11-28T14:24:26;9.10;99.90
285;DHT22;127;48.770;9.212;2022-11-28T14:26:57;9.30;99.90
285;DHT22;127;48.770;9.212;2022-11-28T14:29:33;9.30;99.90
285;DHT22;127;48.770;9.212;2022-11-28T14:32:03;9.30;99.90
285;DHT22;127;48.770;9.212;2022-11-28T14:34:37;9.40;99.90
285;DHT22;127;48.770;9.212;2022-11-28T14:43:40;8.80;99.90
285;DHT22;127;48.770;9.212;2022-11-28T14:46:28;8.70;99.90
285;DHT22;127;48.770;9.212;2022-11-28T14:49:16;8.50;99.90
285;DHT22;127;48.770;9.212;2022-11-28T14:54:49;8.10;99.90
285;DHT22;127;48.770;9.212;2022-11-28T14:57:22;8.00;99.90
285;DHT22;127;48.770;9.212;2022-11-28T14:59:54;7.90;99.90
285;DHT22;127;48.770;9.212;2022-11-28T15:02:46;7.80;99.90
285;DHT22;127;48.770;9.212;2022-11-28T15:05:39;7.80;99.90
285;DHT22;127;48.770;9.212;2022-11-28T15:08:30;7.60;99.90
285;DHT22;127;48.770;9.212;2022-11-28T15:11:26;7.70;99.90
285;DHT22;127;48.770;9.212;2022-11-28T15:14:10;7.70;99.90
285;DHT22;127;48.770;9.212;2022-11-28T15:16:46;7.70;99.90
285;DHT22;127;48.770;9.212;2022-11-28T15:19:21;7.80;99.90
285;DHT22;127;48.770;9.212;2022-11-28T15:21:51;7.80;99.90
285;DHT22;127;48.770;9.212;2022-11-28T15:24:23;7.70;99.90
285;DHT22;127;48.770;9.212;2022-11-28T15:26:54;7.60;99.90
285;DHT22;127;48.770;9.212;2022-11-28T15:29:24;7.70;99.90
285;DHT22;127;48.770;9.212;2022-11-28T15:31:56;7.80;99.90
285;DHT22;127;48.770;9.212;2022-11-28T15:34:28;7.70;99.90
285;DHT22;127;48.770;9.212;2022-11-28T15:36:58;7.70;99.90
285;DHT22;127;48.770;9.212;2022-11-28T15:39:30;7.70;99.90
285;DHT22;127;48.770;9.212;2022-11-28T15:42:07;7.70;99.90
285;DHT22;127;48.770;9.212;2022-11-28T15:44:36;7.50;99.90
285;DHT22;127;48.770;9.212;2022-11-28T15:47:15;7.40;99.90
285;DHT22;127;48.770;9.212;2022-11-28T15:49:49;7.40;99.90
285;DHT22;127;48.770;9.212;2022-11-28T15:52:25;7.40;99.90
285;DHT22;127;48.770;9.212;2022-11-28T15:54:53;7.10;99.90
285;DHT22;127;48.770;9.212;2022-11-28T15:57:24;7.20;1.00
285;DHT22;127;48.770;9.212;2022-11-28T15:59:57;7.20;1.00
285;DHT22;127;48.770;9.212;2022-11-28T16:02:31;7.20;1.00
285;DHT22;127;48.770;9.212;2022-11-28T16:05:04;7.10;1.00
285;DHT22;127;48.770;9.212;2022-11-28T16:07:34;7.10;1.00
285;DHT22;127;48.770;9.212;2022-11-28T16:10:07;7.00;1.00
285;DHT22;127;48.770;9.212;2022-11-28T16:12:44;7.00;1.00
285;DHT22;127;48.770;9.212;2022-11-28T16:15:16;7.10;1.00
285;DHT22;127;48.770;9.212;2022-11-28T16:17:48;7.10;1.00
285;DHT22;127;48.770;9.212;2022-11-28T16:20:21;7.00;1.00
285;DHT22;127;48.770;9.212;2022-11-28T16:22:55;6.80;1.00
285;DHT22;127;48.770;9.212;2022-11-28T16:25:25;6.80;1.00
285;DHT22;127;48.770;9.212;2022-11-28T16:27:55;6.70;1.00
285;DHT22;127;48.770;9.212;2022-11-28T16:30:26;6.70;1.00
285;DHT22;127;48.770;9.212;2022-11-28T16:32:59;6.70;1.00
285;DHT22;127;48.770;9.212;2022-11-28T16:35:29;6.70;1.00
285;DHT22;127;48.770;9.212;2022-11-28T16:38:04;6.70;1.00
285;DHT22;127;48.770;9.212;2022-11-28T16:40:33;6.70;1.00
285;DHT22;127;48.770;9.212;2022-11-28T16:43:02;6.60;1.00
285;DHT22;127;48.770;9.212;2022-11-28T16:45:33;6.80;1.00
285;DHT22;127;48.770;9.212;2022-11-28T16:48:06;6.70;1.00
285;DHT22;127;48.770;9.212;2022-11-28T16:50:37;6.70;1.00
285;DHT22;127;48.770;9.212;2022-11-28T16:53:07;6.50;1.00
285;DHT22;127;48.770;9.212;2022-11-28T16:55:55;6.50;1.00
285;DHT22;127;48.770;9.212;2022-11-28T16:58:24;6.50;1.00
285;DHT22;127;48.770;9.212;2022-11-28T17:01:10;6.50;1.00
285;DHT22;127;48.770;9.212;2022-11-28T17:03:49;6.50;1.00
285;DHT22;127;48.770;9.212;2022-11-28T17:06:23;6.50;1.00
285;DHT22;127;48.770;9.212;2022-11-28T17:08:52;6.60;1.00
285;DHT22;127;48.770;9.212;2022-11-28T17:11:23;6.70;1.00
285;DHT22;127;48.770;9.212;2022-11-28T17:13:54;6.70;1.00
285;DHT22;127;48.770;9.212;2022-11-28T17:16:24;6.80;1.00
285;DHT22;127;48.770;9.212;2022-11-28T17:18:55;6.80;1.00
285;DHT22;127;48.770;9.212;2022-11-28T17:21:28;6.80;1.00
285;DHT22;127;48.770;9.212;2022-11-28T17:23:59;6.80;1.00
285;DHT22;127;48.770;9.212;2022-11-28T17:26:28;6.80;1.00
285;DHT22;127;48.770;9.212;2022-11-28T17:28:57;6.90;1.00
285;DHT22;127;48.770;9.212;2022-11-28T17:31:26;7.00;1.00
285;DHT22;127;48.770;9.212;2022-11-28T17:33:57;7.10;1.00
285;DHT22;127;48.770;9.212;2022-11-28T17:36:26;7.00;1.00
285;DHT22;127;48.770;9.212;2022-11-28T17:38:54;6.80;1.00
285;DHT22;127;48.770;9.212;2022-11-28T17:41:23;6.90;1.00
285;DHT22;127;48.770;9.212;2022-11-28T17:43:51;6.90;1.00
285;DHT22;127;48.770;9.212;2022-11-28T17:46:20;6.90;1.00
285;DHT22;127;48.770;9.212;2022-11-28T17:48:49;6.90;1.00
285;DHT22;127;48.770;9.212;2022-11-28T17:51:20;7.00;1.00
285;DHT22;127;48.770;9.212;2022-11-28T17:53:48;7.10;1.00
285;DHT22;127;48.770;9.212;2022-11-28T17:56:17;7.20;1.00
285;DHT22;127;48.770;9.212;2022-11-28T17:58:46;7.30;1.00
285;DHT22;127;48.770;9.212;2022-11-28T18:01:17;7.30;1.00